SLET/SRZ METAR and TAF weather

Enter ICAO airport designator
Station Type Date Time Source
SLET METAR 2022/11/26 23:00 UTC NOAA

SLET 262300Z 13005KT 9999 NSC 34/14 Q1007


Station Type Date Time Source
SLET Decoded METAR 2022/11/26 23:00 UTC NOAA

Santa Cruz / El Trompillo, Bolivia (SLET) 17-48S 063-11W 414M
Nov 26, 2022 - 06:00 PM EST / 2022.11.26 2300 UTC
Wind: from the SE (130 degrees) at 6 MPH (5 KT):0
Visibility: greater than 7 mile(s):0
Temperature: 93 F (34 C)
Dew Point: 57 F (14 C)
Relative Humidity: 30%
Pressure (altimeter): 29.74 in. Hg (1007 hPa)
ob: SLET 262300Z 13005KT 9999 NSC 34/14 Q1007
cycle: 23

Station Type Date Time Source
SLET TAF 2022/11/27 06:55 UTC NOAA

TAF SLET 270400Z 2706/2806 24006KT 8000 NSC TX39/2719Z TN22/2710Z
BECMG 2715/2719 16010G25KT

Example: see airport list